createdAt,value
2022-08-03T00:01:07.434Z,98534.00
2022-08-03T00:03:56.148Z,98535.47
2022-08-03T00:06:44.665Z,98535.09
2022-08-03T00:09:35.825Z,98545.09
2022-08-03T00:12:24.419Z,98535.16
2022-08-03T00:15:15.202Z,98540.53
2022-08-03T00:18:05.566Z,98530.22
2022-08-03T00:20:54.066Z,98533.03
2022-08-03T00:23:51.376Z,98544.56
2022-08-03T00:26:42.410Z,98536.88
2022-08-03T00:29:30.882Z,98537.66
2022-08-03T00:32:19.277Z,98531.81
2022-08-03T00:35:27.414Z,98540.78
2022-08-03T00:38:21.869Z,98543.00
2022-08-03T00:41:10.348Z,98548.13
2022-08-03T00:44:00.158Z,98550.19
2022-08-03T00:46:48.581Z,98550.72
2022-08-03T00:49:37.129Z,98552.41
2022-08-03T00:52:25.619Z,98551.88
2022-08-03T00:55:14.432Z,98552.47
2022-08-03T00:58:06.620Z,98556.41
2022-08-03T01:00:56.508Z,98556.78
2022-08-03T01:03:45.052Z,98551.38
2022-08-03T01:06:42.523Z,98550.78
2022-08-03T01:09:39.493Z,98555.25
2022-08-03T01:12:36.283Z,98545.53
2022-08-03T01:15:31.152Z,98544.50
2022-08-03T01:18:27.174Z,98545.66
2022-08-03T01:21:22.691Z,98540.31
2022-08-03T01:24:24.898Z,98548.00
2022-08-03T01:27:19.095Z,98542.94
2022-08-03T01:30:10.921Z,98553.44
2022-08-03T01:33:03.666Z,98554.06
2022-08-03T01:35:57.196Z,98553.13
2022-08-03T01:38:50.681Z,98549.34
2022-08-03T01:41:46.119Z,98550.03
2022-08-03T01:44:38.647Z,98545.97
2022-08-03T01:47:31.640Z,98544.69
2022-08-03T01:50:23.061Z,98547.56
2022-08-03T01:53:14.575Z,98539.00
2022-08-03T01:56:05.281Z,98537.44
2022-08-03T01:58:55.437Z,98537.41
2022-08-03T02:02:31.959Z,98535.03
2022-08-03T02:04:58.101Z,98534.97
2022-08-03T02:07:47.711Z,98528.25
2022-08-03T02:10:37.829Z,98540.09
2022-08-03T02:13:27.459Z,98534.16
2022-08-03T02:16:15.921Z,98542.19
2022-08-03T02:19:07.889Z,98539.56
2022-08-03T02:22:01.063Z,98537.13
2022-08-03T02:24:51.019Z,98533.56
2022-08-03T02:27:44.121Z,98529.44
2022-08-03T02:30:38.729Z,98527.94
2022-08-03T02:33:31.852Z,98531.84
2022-08-03T02:36:25.929Z,98530.44
2022-08-03T02:39:20.612Z,98531.97
2022-08-03T02:42:12.135Z,98533.28
2022-08-03T02:45:06.271Z,98533.19
2022-08-03T02:48:04.287Z,98530.91
2022-08-03T02:50:55.193Z,98534.09
2022-08-03T02:53:46.372Z,98530.03
2022-08-03T02:56:37.574Z,98525.44
2022-08-03T02:59:26.877Z,98525.44
2022-08-03T03:02:17.329Z,98537.81
2022-08-03T03:05:54.338Z,98538.50
2022-08-03T03:08:17.698Z,98540.75
2022-08-03T03:11:10.092Z,98543.63
2022-08-03T03:14:01.167Z,98541.63
2022-08-03T03:16:50.742Z,98544.28
2022-08-03T03:19:47.185Z,98544.19
2022-08-03T03:22:37.380Z,98541.25
2022-08-03T03:25:30.020Z,98542.41
2022-08-03T03:28:18.779Z,98543.09
2022-08-03T03:31:09.362Z,98538.47
2022-08-03T03:33:59.252Z,98539.44
2022-08-03T03:36:47.838Z,98533.78
2022-08-03T03:39:36.993Z,98546.09
2022-08-03T03:42:26.568Z,98551.38
2022-08-03T03:45:15.553Z,98551.88
2022-08-03T03:48:06.676Z,98544.38
2022-08-03T03:50:57.319Z,98546.31
2022-08-03T03:53:56.525Z,98560.22
2022-08-03T03:56:44.916Z,98554.31
2022-08-03T03:59:33.372Z,98556.91
2022-08-03T04:02:25.204Z,98558.25
2022-08-03T04:05:32.685Z,98565.09
2022-08-03T04:08:39.074Z,98565.47
2022-08-03T04:11:35.628Z,98561.88
2022-08-03T04:14:28.295Z,98568.50
2022-08-03T04:17:18.178Z,98576.94
2022-08-03T04:20:08.241Z,98563.72
2022-08-03T04:23:01.222Z,98571.13
2022-08-03T04:25:51.859Z,98578.69
2022-08-03T04:28:42.379Z,98575.25
2022-08-03T04:31:31.484Z,98581.59
2022-08-03T04:34:21.218Z,98583.13
2022-08-03T04:37:13.214Z,98581.31
2022-08-03T04:40:07.178Z,98585.50
2022-08-03T04:42:57.617Z,98583.81
2022-08-03T04:45:49.194Z,98599.88
2022-08-03T04:48:38.021Z,98590.38
2022-08-03T04:51:27.337Z,98593.72
2022-08-03T04:54:16.529Z,98602.25
2022-08-03T04:57:06.471Z,98606.53
2022-08-03T05:00:02.007Z,98604.41
2022-08-03T05:02:51.130Z,98601.47
2022-08-03T05:05:50.101Z,98600.81
2022-08-03T05:08:46.211Z,98600.81
2022-08-03T05:11:39.115Z,98599.03
2022-08-03T05:14:28.812Z,98596.19
2022-08-03T05:17:17.423Z,98596.72
2022-08-03T05:20:07.074Z,98600.84
2022-08-03T05:22:55.531Z,98601.59
2022-08-03T05:25:46.185Z,98594.03
2022-08-03T05:28:38.629Z,98595.84
2022-08-03T05:31:28.457Z,98601.06
2022-08-03T05:34:16.805Z,98599.53
2022-08-03T05:37:05.256Z,98599.53
2022-08-03T05:39:53.745Z,98598.94
2022-08-03T05:42:42.187Z,98595.44
2022-08-03T05:45:30.556Z,98596.97
2022-08-03T05:48:20.300Z,98602.28
2022-08-03T05:51:11.962Z,98607.38
2022-08-03T05:54:00.540Z,98604.88
2022-08-03T05:56:48.897Z,98605.13
2022-08-03T05:59:39.623Z,98601.97
2022-08-03T06:02:46.763Z,98597.16
2022-08-03T06:05:37.509Z,98603.44
2022-08-03T06:08:31.868Z,98604.66
2022-08-03T06:11:20.389Z,98609.81
2022-08-03T06:14:08.849Z,98610.56
2022-08-03T06:16:57.262Z,98616.13
2022-08-03T06:19:45.894Z,98608.19
2022-08-03T06:22:35.777Z,98611.25
2022-08-03T06:25:39.140Z,98610.28
2022-08-03T06:28:53.228Z,98609.34
2022-08-03T06:31:36.205Z,98605.44
2022-08-03T06:34:32.804Z,98609.66
2022-08-03T06:37:24.852Z,98610.97
2022-08-03T06:40:24.269Z,98609.22
2022-08-03T06:43:16.066Z,98611.13
2022-08-03T06:46:05.385Z,98612.31
2022-08-03T06:48:54.200Z,98618.88
2022-08-03T06:52:05.134Z,98616.03
2022-08-03T06:54:51.215Z,98616.81
2022-08-03T06:57:41.802Z,98625.81
2022-08-03T07:00:30.978Z,98624.69
2022-08-03T07:03:19.412Z,98628.06
2022-08-03T07:06:07.779Z,98623.94
2022-08-03T07:08:59.598Z,98618.50
2022-08-03T07:11:48.146Z,98626.56
2022-08-03T07:14:38.042Z,98622.41
2022-08-03T07:17:26.683Z,98635.22
2022-08-03T07:20:17.486Z,98616.59
2022-08-03T07:23:05.977Z,98630.16
2022-08-03T07:25:54.412Z,98630.47
2022-08-03T07:28:42.873Z,98637.09
2022-08-03T07:31:34.447Z,98633.28
2022-08-03T07:34:23.099Z,98627.78
2022-08-03T07:37:11.732Z,98624.56
2022-08-03T07:40:01.014Z,98629.06
2022-08-03T07:42:52.186Z,98630.03
2022-08-03T07:45:42.211Z,98634.47
2022-08-03T07:48:31.932Z,98634.94
2022-08-03T07:51:20.418Z,98629.47
2022-08-03T07:54:10.292Z,98622.91
2022-08-03T07:56:58.884Z,98617.69
2022-08-03T08:00:02.006Z,98620.03
2022-08-03T08:03:00.653Z,98615.78
2022-08-03T08:05:50.522Z,98617.00
2022-08-03T08:08:39.764Z,98620.00
2022-08-03T08:11:28.184Z,98622.09
2022-08-03T08:14:16.595Z,98628.25
2022-08-03T08:17:07.357Z,98626.13
2022-08-03T08:19:56.144Z,98624.72
2022-08-03T08:22:47.799Z,98627.03
2022-08-03T08:25:38.775Z,98630.72
2022-08-03T08:28:30.666Z,98633.19
2022-08-03T08:31:21.808Z,98624.50
2022-08-03T08:34:10.796Z,98630.91
2022-08-03T08:36:59.671Z,98625.63
2022-08-03T08:39:49.521Z,98626.97
2022-08-03T08:42:40.307Z,98627.75
2022-08-03T08:45:34.707Z,98623.06
2022-08-03T08:48:27.073Z,98633.38
2022-08-03T08:51:15.649Z,98626.28
2022-08-03T08:54:07.363Z,98631.97
2022-08-03T08:56:59.516Z,98633.19
2022-08-03T08:59:49.719Z,98630.00
2022-08-03T09:02:42.523Z,98623.59
2022-08-03T09:05:55.119Z,98625.66
2022-08-03T09:08:41.618Z,98622.06
2022-08-03T09:11:51.716Z,98628.53
2022-08-03T09:14:54.791Z,98625.03
2022-08-03T09:17:51.275Z,98619.63
2022-08-03T09:20:40.426Z,98631.94
2022-08-03T09:24:01.508Z,98628.41
2022-08-03T09:26:54.092Z,98625.31
2022-08-03T09:29:49.117Z,98621.63
2022-08-03T09:32:38.607Z,98620.69
2022-08-03T09:35:51.639Z,98613.63
2022-08-03T09:38:37.006Z,98609.75
2022-08-03T09:41:25.537Z,98622.88
2022-08-03T09:44:25.381Z,98616.94
2022-08-03T09:47:18.082Z,98617.31
2022-08-03T09:50:08.628Z,98620.84
2022-08-03T09:53:03.271Z,98613.22
2022-08-03T09:56:34.125Z,98609.94
2022-08-03T09:59:04.450Z,98611.34
2022-08-03T10:01:53.086Z,98606.72
2022-08-03T10:04:51.068Z,98609.25
2022-08-03T10:07:47.227Z,98609.25
2022-08-03T10:10:44.093Z,98608.22
2022-08-03T10:13:32.892Z,98609.88
2022-08-03T10:16:25.453Z,98607.50
2022-08-03T10:19:15.322Z,98603.66
2022-08-03T10:22:09.217Z,98603.72
2022-08-03T10:25:01.060Z,98600.59
2022-08-03T10:27:54.033Z,98607.91
2022-08-03T10:30:45.260Z,98611.50
2022-08-03T10:33:50.954Z,98608.25
2022-08-03T10:36:42.639Z,98602.09
2022-08-03T10:39:32.741Z,98607.94
2022-08-03T10:42:26.403Z,98599.69
2022-08-03T10:45:20.907Z,98608.81
2022-08-03T10:48:10.569Z,98606.72
2022-08-03T10:50:59.179Z,98602.22
2022-08-03T10:53:54.329Z,98602.56
2022-08-03T10:57:12.428Z,98592.22
2022-08-03T11:00:06.056Z,98593.84
2022-08-03T11:03:10.138Z,98589.97
2022-08-03T11:06:19.056Z,98592.91
2022-08-03T11:09:20.261Z,98591.25
2022-08-03T11:12:30.176Z,98590.06
2022-08-03T11:15:34.508Z,98588.53
2022-08-03T11:18:23.224Z,98572.44
2022-08-03T11:21:15.597Z,98573.38
2022-08-03T11:24:06.686Z,98573.91
2022-08-03T11:27:18.723Z,98571.50
2022-08-03T11:30:11.631Z,98576.13
2022-08-03T11:33:01.788Z,98575.41
2022-08-03T11:36:00.565Z,98577.47
2022-08-03T11:39:16.540Z,98562.19
2022-08-03T11:42:39.048Z,98561.97
2022-08-03T11:45:29.479Z,98553.09
2022-08-03T11:48:18.251Z,98560.25
2022-08-03T11:51:08.325Z,98549.44
2022-08-03T11:53:58.360Z,98546.03
2022-08-03T11:56:48.198Z,98546.22
2022-08-03T11:59:38.874Z,98544.72
2022-08-03T12:02:28.979Z,98545.78
2022-08-03T12:05:17.594Z,98541.81
2022-08-03T12:08:07.119Z,98545.13
2022-08-03T12:10:58.002Z,98540.78
2022-08-03T12:14:43.924Z,98531.19
2022-08-03T12:16:56.174Z,98533.38
2022-08-03T12:19:46.658Z,98534.13
2022-08-03T12:22:35.412Z,98531.06
2022-08-03T12:25:38.672Z,98534.56
2022-08-03T12:28:36.745Z,98527.47
2022-08-03T12:31:26.095Z,98517.06
2022-08-03T12:34:14.873Z,98524.84
2022-08-03T12:37:21.949Z,98520.84
2022-08-03T12:40:19.340Z,98514.94
2022-08-03T12:43:13.796Z,98519.75
2022-08-03T12:46:14.068Z,98507.91
2022-08-03T12:49:08.394Z,98517.00
2022-08-03T12:52:02.828Z,98514.25
2022-08-03T12:54:58.135Z,98507.91
2022-08-03T12:57:46.543Z,98508.00
2022-08-03T13:00:35.404Z,98507.84
2022-08-03T13:03:39.718Z,98500.53
2022-08-03T13:06:30.900Z,98498.78
2022-08-03T13:09:19.474Z,98502.81
2022-08-03T13:12:12.012Z,98501.66
2022-08-03T13:15:01.542Z,98496.84
2022-08-03T13:17:49.947Z,98492.25
2022-08-03T13:20:38.498Z,98489.56
2022-08-03T13:23:26.892Z,98494.00
2022-08-03T13:26:15.390Z,98493.00
2022-08-03T13:29:05.152Z,98488.25
2022-08-03T13:31:53.926Z,98489.72
2022-08-03T13:34:42.492Z,98483.59
2022-08-03T13:37:32.411Z,98480.09
2022-08-03T13:40:23.811Z,98481.31
2022-08-03T13:43:18.688Z,98476.53
2022-08-03T13:46:08.534Z,98476.00
2022-08-03T13:48:56.958Z,98474.63
2022-08-03T13:51:45.420Z,98474.78
2022-08-03T13:54:34.117Z,98473.25
2022-08-03T13:58:04.669Z,98469.13
2022-08-03T14:00:31.306Z,98479.13
2022-08-03T14:03:21.456Z,98479.72
2022-08-03T14:06:09.900Z,98464.47
2022-08-03T14:09:00.664Z,98466.66
2022-08-03T14:12:07.045Z,98466.72
2022-08-03T14:14:59.777Z,98470.50
2022-08-03T14:17:50.301Z,98465.22
2022-08-03T14:20:47.818Z,98465.28
2022-08-03T14:23:40.734Z,98467.78
2022-08-03T14:26:30.540Z,98465.84
2022-08-03T14:29:18.916Z,98467.59
2022-08-03T14:32:11.665Z,98460.44
2022-08-03T14:35:01.299Z,98456.13
2022-08-03T14:37:51.921Z,98451.03
2022-08-03T14:40:40.346Z,98454.16
2022-08-03T14:43:33.993Z,98455.56
2022-08-03T14:46:22.739Z,98452.09
2022-08-03T14:50:37.960Z,98450.06
2022-08-03T14:52:19.475Z,98458.09
2022-08-03T14:55:10.118Z,98448.66
2022-08-03T14:57:58.517Z,98452.25
2022-08-03T15:00:46.957Z,98448.72
2022-08-03T15:03:35.427Z,98438.81
2022-08-03T15:06:23.798Z,98447.81
2022-08-03T15:09:23.025Z,98448.88
2022-08-03T15:12:13.571Z,98444.59
2022-08-03T15:15:02.028Z,98441.53
2022-08-03T15:18:00.407Z,98432.31
2022-08-03T15:20:50.814Z,98438.69
2022-08-03T15:23:39.348Z,98432.56
2022-08-03T15:26:34.232Z,98433.22
2022-08-03T15:30:05.334Z,98426.88
2022-08-03T15:32:36.407Z,98429.59
2022-08-03T15:35:25.056Z,98428.22
2022-08-03T15:38:13.484Z,98422.75
2022-08-03T15:41:01.954Z,98436.22
2022-08-03T15:43:52.831Z,98429.81
2022-08-03T15:46:42.572Z,98419.13
2022-08-03T15:49:31.014Z,98422.63
2022-08-03T15:52:19.580Z,98423.00
2022-08-03T15:55:09.383Z,98418.97
2022-08-03T15:59:09.239Z,98423.25
2022-08-03T16:01:16.403Z,98416.69
2022-08-03T16:04:08.994Z,98408.91
2022-08-03T16:06:57.627Z,98406.16
2022-08-03T16:09:46.034Z,98404.38
2022-08-03T16:12:34.492Z,98406.22
2022-08-03T16:15:23.060Z,98403.56
2022-08-03T16:18:11.448Z,98395.81
2022-08-03T16:21:01.583Z,98399.03
2022-08-03T16:23:50.183Z,98395.09
2022-08-03T16:26:39.587Z,98388.47
2022-08-03T16:29:28.452Z,98390.09
2022-08-03T16:32:17.050Z,98392.16
2022-08-03T16:35:06.218Z,98387.19
2022-08-03T16:37:56.738Z,98389.91
2022-08-03T16:40:45.936Z,98383.75
2022-08-03T16:43:35.830Z,98381.56
2022-08-03T16:46:24.418Z,98387.63
2022-08-03T16:49:13.294Z,98385.00
2022-08-03T16:52:21.741Z,98385.44
2022-08-03T16:55:15.373Z,98384.94
2022-08-03T16:58:05.232Z,98388.06
2022-08-03T17:00:54.057Z,98383.78
2022-08-03T17:04:02.162Z,98389.59
2022-08-03T17:06:51.336Z,98399.53
2022-08-03T17:09:39.747Z,98394.13
2022-08-03T17:12:30.135Z,98392.31
2022-08-03T17:15:19.846Z,98393.88
2022-08-03T17:18:29.844Z,98407.22
2022-08-03T17:21:19.113Z,98401.75
2022-08-03T17:24:14.684Z,98396.75
2022-08-03T17:27:23.131Z,98403.00
2022-08-03T17:30:20.275Z,98405.22
2022-08-03T17:33:20.250Z,98408.09
2022-08-03T17:36:09.785Z,98414.44
2022-08-03T17:38:58.833Z,98414.53
2022-08-03T17:41:50.721Z,98417.84
2022-08-03T17:44:46.404Z,98412.09
2022-08-03T17:47:41.404Z,98414.75
2022-08-03T17:50:42.350Z,98422.34
2022-08-03T17:53:38.525Z,98421.78
2022-08-03T17:56:42.648Z,98429.44
2022-08-03T17:59:51.843Z,98430.28
2022-08-03T18:03:10.096Z,98434.00
2022-08-03T18:06:10.493Z,98434.44
2022-08-03T18:09:05.353Z,98430.63
2022-08-03T18:12:17.931Z,98431.56
2022-08-03T18:15:07.734Z,98444.03
2022-08-03T18:18:10.284Z,98440.25
2022-08-03T18:21:04.772Z,98443.38
2022-08-03T18:23:56.487Z,98449.31
2022-08-03T18:26:50.315Z,98446.94
2022-08-03T18:29:39.763Z,98456.09
2022-08-03T18:32:28.527Z,98460.22
2022-08-03T18:35:24.813Z,98462.38
2022-08-03T18:38:16.772Z,98462.19
2022-08-03T18:41:12.918Z,98469.94
2022-08-03T18:44:09.343Z,98467.06
2022-08-03T18:47:50.690Z,98468.47
2022-08-03T18:50:46.463Z,98481.44
2022-08-03T18:54:02.532Z,98479.91
2022-08-03T18:56:54.929Z,98485.50
2022-08-03T18:59:51.388Z,98482.69
2022-08-03T19:02:48.860Z,98479.06
2022-08-03T19:06:02.505Z,98486.00
2022-08-03T19:08:57.601Z,98484.72
2022-08-03T19:12:14.123Z,98493.28
2022-08-03T19:15:01.215Z,98489.13
2022-08-03T19:17:53.739Z,98485.09
2022-08-03T19:20:46.826Z,98495.72
2022-08-03T19:23:36.612Z,98491.84
2022-08-03T19:26:31.039Z,98498.09
2022-08-03T19:29:22.809Z,98496.63
2022-08-03T19:32:15.481Z,98501.50
2022-08-03T19:35:13.206Z,98499.13
2022-08-03T19:38:03.749Z,98505.19
2022-08-03T19:40:54.582Z,98495.63
2022-08-03T19:43:57.543Z,98499.16
2022-08-03T19:46:53.641Z,98497.88
2022-08-03T19:52:57.888Z,98509.03
2022-08-03T19:55:49.333Z,98506.94
2022-08-03T19:58:38.471Z,98506.31
2022-08-03T20:01:26.920Z,98499.94
2022-08-03T20:04:16.837Z,98505.28
2022-08-03T20:07:07.920Z,98507.31
2022-08-03T20:09:59.705Z,98502.91
2022-08-03T20:12:51.613Z,98496.75
2022-08-03T20:15:41.505Z,98505.91
2022-08-03T20:18:33.618Z,98498.75
2022-08-03T20:21:28.483Z,98497.09
2022-08-03T20:24:24.866Z,98496.13
2022-08-03T20:27:19.103Z,98489.97
2022-08-03T20:30:12.180Z,98487.16
2022-08-03T20:33:00.763Z,98486.28
2022-08-03T20:35:50.750Z,98485.84
2022-08-03T20:38:47.149Z,98486.78
2022-08-03T20:41:36.192Z,98486.78
2022-08-03T20:44:25.817Z,98479.28
2022-08-03T20:47:23.843Z,98479.91
2022-08-03T20:50:13.413Z,98481.91
2022-08-03T20:53:04.913Z,98484.56
2022-08-03T20:56:02.487Z,98488.56
2022-08-03T20:58:52.182Z,98494.22
2022-08-03T21:01:40.671Z,98484.63
2022-08-03T21:04:34.277Z,98497.56
2022-08-03T21:07:25.617Z,98497.06
2022-08-03T21:10:38.232Z,98500.97
2022-08-03T21:13:08.247Z,98503.97
2022-08-03T21:13:32.979Z,98499.44
2022-08-03T21:16:27.033Z,98496.28
2022-08-03T21:19:18.191Z,98491.25
2022-08-03T21:22:09.984Z,98497.50
2022-08-03T21:25:00.321Z,98501.84
2022-08-03T21:27:51.989Z,98505.41
2022-08-03T21:30:40.338Z,98503.63
2022-08-03T21:33:30.762Z,98504.38
2022-08-03T21:36:19.333Z,98514.19
2022-08-03T21:39:11.206Z,98512.50
2022-08-03T21:41:59.703Z,98501.41
2022-08-03T21:44:48.290Z,98506.69
2022-08-03T21:47:39.482Z,98515.56
2022-08-03T21:50:28.138Z,98516.31
2022-08-03T21:53:17.291Z,98516.69
2022-08-03T21:56:09.079Z,98517.63
2022-08-03T21:59:01.315Z,98524.59
2022-08-03T22:01:55.404Z,98524.06
2022-08-03T22:04:53.231Z,98519.41
2022-08-03T22:07:45.049Z,98516.59
2022-08-03T22:10:33.432Z,98522.03
2022-08-03T22:13:43.317Z,98514.72
2022-08-03T22:16:31.723Z,98510.38
2022-08-03T22:19:20.241Z,98513.97
2022-08-03T22:22:13.891Z,98514.56
2022-08-03T22:25:06.562Z,98515.13
2022-08-03T22:28:00.163Z,98514.00
2022-08-03T22:30:50.764Z,98519.25
2022-08-03T22:33:39.644Z,98520.25
2022-08-03T22:36:28.690Z,98517.25
2022-08-03T22:39:25.673Z,98513.31
2022-08-03T22:42:14.942Z,98514.81
2022-08-03T22:45:05.704Z,98512.56
2022-08-03T22:47:56.926Z,98506.53
2022-08-03T22:50:45.957Z,98515.19
2022-08-03T22:53:35.608Z,98508.59
2022-08-03T22:56:24.920Z,98512.94
2022-08-03T22:59:40.370Z,98514.25
2022-08-03T23:02:23.277Z,98514.41
2022-08-03T23:06:01.825Z,98498.06
2022-08-03T23:08:27.270Z,98511.59
2022-08-03T23:11:18.338Z,98506.69
2022-08-03T23:14:16.184Z,98498.06
2022-08-03T23:17:06.097Z,98503.53
2022-08-03T23:19:56.484Z,98504.44
2022-08-03T23:22:48.353Z,98502.75
2022-08-03T23:25:41.476Z,98506.31
2022-08-03T23:28:32.700Z,98504.81
2022-08-03T23:31:22.508Z,98506.69
2022-08-03T23:34:32.618Z,98490.16
2022-08-03T23:37:21.397Z,98504.78
2022-08-03T23:40:13.273Z,98499.91
2022-08-03T23:43:03.257Z,98498.78
2022-08-03T23:45:53.069Z,98502.16
2022-08-03T23:48:41.441Z,98496.91
2022-08-03T23:51:43.092Z,98490.50
2022-08-03T23:54:41.380Z,98487.97
2022-08-03T23:57:38.697Z,98487.38
